sensor_id;sensor_type;location;lat;lon;timestamp;pressure;altitude;pressure_sealevel;temperature;humidity
11448;BME280;43755;49.736;8.734;2023-02-16T00:00:53;98878.94;;;-2.47;100.00
11448;BME280;43755;49.736;8.734;2023-02-16T00:02:54;98882.16;;;-2.57;100.00
11448;BME280;43755;49.736;8.734;2023-02-16T00:04:56;98875.91;;;-2.67;100.00
11448;BME280;43755;49.736;8.734;2023-02-16T00:06:57;98881.88;;;-2.69;100.00
11448;BME280;43755;49.736;8.734;2023-02-16T00:08:58;98874.00;;;-2.74;100.00
11448;BME280;43755;49.736;8.734;2023-02-16T00:11:00;98877.56;;;-2.69;100.00
11448;BME280;43755;49.736;8.734;2023-02-16T00:13:20;98876.75;;;-2.68;100.00
11448;BME280;43755;49.736;8.734;2023-02-16T00:15:42;98879.28;;;-2.69;100.00
11448;BME280;43755;49.736;8.734;2023-02-16T00:17:45;98874.88;;;-2.73;100.00
11448;BME280;43755;49.736;8.734;2023-02-16T00:19:46;98881.78;;;-2.74;100.00
11448;BME280;43755;49.736;8.734;2023-02-16T00:21:49;98874.00;;;-2.74;100.00
11448;BME280;43755;49.736;8.734;2023-02-16T00:23:51;98874.94;;;-2.72;100.00
11448;BME280;43755;49.736;8.734;2023-02-16T00:25:52;98871.47;;;-2.71;100.00
11448;BME280;43755;49.736;8.734;2023-02-16T00:27:54;98871.47;;;-2.72;100.00
11448;BME280;43755;49.736;8.734;2023-02-16T00:29:55;98879.13;;;-2.75;100.00
11448;BME280;43755;49.736;8.734;2023-02-16T00:31:58;98867.94;;;-2.74;100.00
11448;BME280;43755;49.736;8.734;2023-02-16T00:34:18;98874.53;;;-2.87;100.00
11448;BME280;43755;49.736;8.734;2023-02-16T00:36:23;98871.66;;;-2.99;100.00
11448;BME280;43755;49.736;8.734;2023-02-16T00:38:25;98878.47;;;-3.03;100.00
11448;BME280;43755;49.736;8.734;2023-02-16T00:40:26;98882.84;;;-3.02;100.00
11448;BME280;43755;49.736;8.734;2023-02-16T00:42:30;98880.19;;;-3.03;100.00
11448;BME280;43755;49.736;8.734;2023-02-16T00:44:34;98876.69;;;-3.05;100.00
11448;BME280;43755;49.736;8.734;2023-02-16T00:46:36;98879.25;;;-3.07;100.00
11448;BME280;43755;49.736;8.734;2023-02-16T00:48:38;98874.91;;;-3.08;100.00
11448;BME280;43755;49.736;8.734;2023-02-16T00:50:40;98876.66;;;-3.07;100.00
11448;BME280;43755;49.736;8.734;2023-02-16T00:52:42;98878.34;;;-3.09;100.00
11448;BME280;43755;49.736;8.734;2023-02-16T00:54:45;98874.00;;;-3.10;100.00
11448;BME280;43755;49.736;8.734;2023-02-16T00:56:46;98880.78;;;-3.15;100.00
11448;BME280;43755;49.736;8.734;2023-02-16T00:58:49;98875.81;;;-3.06;100.00
11448;BME280;43755;49.736;8.734;2023-02-16T01:00:54;98867.25;;;-3.03;100.00
11448;BME280;43755;49.736;8.734;2023-02-16T01:02:58;98864.09;;;-2.92;100.00
11448;BME280;43755;49.736;8.734;2023-02-16T01:05:00;98851.44;;;-2.79;100.00
11448;BME280;43755;49.736;8.734;2023-02-16T01:07:05;98847.22;;;-2.74;100.00
11448;BME280;43755;49.736;8.734;2023-02-16T01:09:24;98846.72;;;-2.58;100.00
11448;BME280;43755;49.736;8.734;2023-02-16T01:11:43;98850.38;;;-2.50;100.00
11448;BME280;43755;49.736;8.734;2023-02-16T01:13:46;98851.16;;;-2.54;100.00
11448;BME280;43755;49.736;8.734;2023-02-16T01:15:48;98853.94;;;-2.45;100.00
11448;BME280;43755;49.736;8.734;2023-02-16T01:17:49;98852.88;;;-2.14;100.00
11448;BME280;43755;49.736;8.734;2023-02-16T01:19:51;98862.41;;;-1.70;100.00
11448;BME280;43755;49.736;8.734;2023-02-16T01:21:52;98867.72;;;-1.63;100.00
11448;BME280;43755;49.736;8.734;2023-02-16T01:23:55;98870.53;;;-1.51;100.00
11448;BME280;43755;49.736;8.734;2023-02-16T01:25:56;98856.94;;;-1.38;100.00
11448;BME280;43755;49.736;8.734;2023-02-16T01:27:57;98847.59;;;-1.30;100.00
11448;BME280;43755;49.736;8.734;2023-02-16T01:29:59;98853.53;;;-1.34;100.00
11448;BME280;43755;49.736;8.734;2023-02-16T01:32:00;98856.91;;;-1.40;100.00
11448;BME280;43755;49.736;8.734;2023-02-16T01:34:02;98845.53;;;-1.46;100.00
11448;BME280;43755;49.736;8.734;2023-02-16T01:36:04;98841.03;;;-1.56;100.00
11448;BME280;43755;49.736;8.734;2023-02-16T01:38:06;98849.78;;;-1.51;100.00
11448;BME280;43755;49.736;8.734;2023-02-16T01:40:18;98851.56;;;-1.49;100.00
11448;BME280;43755;49.736;8.734;2023-02-16T01:42:32;98836.97;;;-1.42;100.00
11448;BME280;43755;49.736;8.734;2023-02-16T01:44:38;98838.75;;;-1.40;100.00
11448;BME280;43755;49.736;8.734;2023-02-16T01:46:43;98827.69;;;-1.30;100.00
11448;BME280;43755;49.736;8.734;2023-02-16T01:48:47;98820.97;;;-1.17;100.00
11448;BME280;43755;49.736;8.734;2023-02-16T01:50:55;98818.53;;;-1.08;100.00
11448;BME280;43755;49.736;8.734;2023-02-16T01:53:03;98822.09;;;-1.01;100.00
11448;BME280;43755;49.736;8.734;2023-02-16T01:55:15;98825.59;;;-0.98;100.00
11448;BME280;43755;49.736;8.734;2023-02-16T01:57:24;98820.44;;;-0.96;100.00
11448;BME280;43755;49.736;8.734;2023-02-16T01:59:32;98823.03;;;-0.96;100.00
11448;BME280;43755;49.736;8.734;2023-02-16T02:01:46;98814.41;;;-0.94;100.00
11448;BME280;43755;49.736;8.734;2023-02-16T02:03:50;98812.06;;;-0.78;100.00
11448;BME280;43755;49.736;8.734;2023-02-16T02:06:11;98808.97;;;-0.52;100.00
11448;BME280;43755;49.736;8.734;2023-02-16T02:08:20;98806.53;;;-0.39;100.00
11448;BME280;43755;49.736;8.734;2023-02-16T02:10:28;98813.50;;;-0.38;100.00
11448;BME280;43755;49.736;8.734;2023-02-16T02:12:34;98808.31;;;-0.37;100.00
11448;BME280;43755;49.736;8.734;2023-02-16T02:14:39;98813.41;;;-0.45;100.00
11448;BME280;43755;49.736;8.734;2023-02-16T02:16:51;98819.19;;;-0.64;100.00
11448;BME280;43755;49.736;8.734;2023-02-16T02:18:53;98812.06;;;-0.78;100.00
11448;BME280;43755;49.736;8.734;2023-02-16T02:21:08;98817.03;;;-0.92;100.00
11448;BME280;43755;49.736;8.734;2023-02-16T02:23:44;98815.19;;;-0.99;100.00
11448;BME280;43755;49.736;8.734;2023-02-16T02:26:31;98815.28;;;-0.95;100.00
11448;BME280;43755;49.736;8.734;2023-02-16T02:28:41;98813.59;;;-0.91;100.00
11448;BME280;43755;49.736;8.734;2023-02-16T02:30:46;98818.72;;;-0.94;100.00
11448;BME280;43755;49.736;8.734;2023-02-16T02:33:08;98824.69;;;-1.01;100.00
11448;BME280;43755;49.736;8.734;2023-02-16T02:35:28;98815.06;;;-1.08;100.00
11448;BME280;43755;49.736;8.734;2023-02-16T02:37:40;98813.38;;;-1.06;100.00
11448;BME280;43755;49.736;8.734;2023-02-16T02:39:51;98800.38;;;-1.05;100.00
11448;BME280;43755;49.736;8.734;2023-02-16T02:42:02;98798.69;;;-1.03;100.00
11448;BME280;43755;49.736;8.734;2023-02-16T02:44:05;98798.63;;;-1.06;100.00
11448;BME280;43755;49.736;8.734;2023-02-16T02:46:12;98797.00;;;-1.01;100.00
11448;BME280;43755;49.736;8.734;2023-02-16T02:48:16;98796.09;;;-1.03;100.00
11448;BME280;43755;49.736;8.734;2023-02-16T02:50:30;98802.19;;;-1.01;100.00
11448;BME280;43755;49.736;8.734;2023-02-16T02:52:32;98798.69;;;-1.03;100.00
11448;BME280;43755;49.736;8.734;2023-02-16T02:54:37;98801.97;;;-1.14;100.00
11448;BME280;43755;49.736;8.734;2023-02-16T02:57:02;98800.16;;;-1.20;100.00
11448;BME280;43755;49.736;8.734;2023-02-16T02:59:24;98794.97;;;-1.20;100.00
11448;BME280;43755;49.736;8.734;2023-02-16T03:01:49;98800.84;;;-1.29;100.00
11448;BME280;43755;49.736;8.734;2023-02-16T03:03:54;98797.38;;;-1.31;100.00
11448;BME280;43755;49.736;8.734;2023-02-16T03:06:01;98794.00;;;-1.25;100.00
11448;BME280;43755;49.736;8.734;2023-02-16T03:08:08;98793.53;;;-1.01;100.00
11448;BME280;43755;49.736;8.734;2023-02-16T03:10:16;98796.91;;;-0.47;100.00
11448;BME280;43755;49.736;8.734;2023-02-16T03:12:51;98799.03;;;-0.17;100.00
11448;BME280;43755;49.736;8.734;2023-02-16T03:14:55;98803.38;;;-0.16;100.00
11448;BME280;43755;49.736;8.734;2023-02-16T03:16:59;98800.69;;;-0.22;100.00
11448;BME280;43755;49.736;8.734;2023-02-16T03:19:18;98810.81;;;-0.45;100.00
11448;BME280;43755;49.736;8.734;2023-02-16T03:21:39;98801.84;;;-0.66;100.00
11448;BME280;43755;49.736;8.734;2023-02-16T03:23:59;98801.13;;;-0.56;100.00
11448;BME280;43755;49.736;8.734;2023-02-16T03:26:19;98803.06;;;-0.42;100.00
11448;BME280;43755;49.736;8.734;2023-02-16T03:28:42;98803.19;;;-0.29;100.00
11448;BME280;43755;49.736;8.734;2023-02-16T03:31:03;98804.97;;;-0.27;100.00
11448;BME280;43755;49.736;8.734;2023-02-16T03:33:06;98803.41;;;-0.11;100.00
11448;BME280;43755;49.736;8.734;2023-02-16T03:35:07;98802.59;;;-0.09;100.00
11448;BME280;43755;49.736;8.734;2023-02-16T03:37:12;98804.38;;;-0.06;100.00
11448;BME280;43755;49.736;8.734;2023-02-16T03:39:13;98795.66;;;-0.08;100.00
11448;BME280;43755;49.736;8.734;2023-02-16T03:41:15;98797.34;;;-0.13;100.00
11448;BME280;43755;49.736;8.734;2023-02-16T03:43:17;98798.94;;;-0.23;100.00
11448;BME280;43755;49.736;8.734;2023-02-16T03:45:21;98800.69;;;-0.25;100.00
11448;BME280;43755;49.736;8.734;2023-02-16T03:47:23;98794.53;;;-0.28;100.00
11448;BME280;43755;49.736;8.734;2023-02-16T03:49:24;98787.53;;;-0.35;100.00
11448;BME280;43755;49.736;8.734;2023-02-16T03:51:26;98788.41;;;-0.33;100.00
11448;BME280;43755;49.736;8.734;2023-02-16T03:53:27;98804.78;;;-0.42;100.00
11448;BME280;43755;49.736;8.734;2023-02-16T03:55:29;98810.72;;;-0.51;100.00
11448;BME280;43755;49.736;8.734;2023-02-16T03:57:30;98808.97;;;-0.53;100.00
11448;BME280;43755;49.736;8.734;2023-02-16T03:59:31;98806.34;;;-0.55;100.00
11448;BME280;43755;49.736;8.734;2023-02-16T04:01:34;98808.00;;;-0.60;100.00
11448;BME280;43755;49.736;8.734;2023-02-16T04:03:36;98814.06;;;-0.59;100.00
11448;BME280;43755;49.736;8.734;2023-02-16T04:05:38;98810.56;;;-0.61;100.00
11448;BME280;43755;49.736;8.734;2023-02-16T04:07:39;98814.78;;;-0.71;100.00
11448;BME280;43755;49.736;8.734;2023-02-16T04:09:41;98815.63;;;-0.72;100.00
11448;BME280;43755;49.736;8.734;2023-02-16T04:11:42;98814.72;;;-0.74;100.00
11448;BME280;43755;49.736;8.734;2023-02-16T04:14:01;98823.28;;;-0.79;100.00
11448;BME280;43755;49.736;8.734;2023-02-16T04:16:03;98823.88;;;-0.97;100.00
11448;BME280;43755;49.736;8.734;2023-02-16T04:18:06;98821.16;;;-1.06;100.00
11448;BME280;43755;49.736;8.734;2023-02-16T04:20:09;98825.66;;;-0.93;100.00
11448;BME280;43755;49.736;8.734;2023-02-16T04:22:11;98818.59;;;-1.03;100.00
11448;BME280;43755;49.736;8.734;2023-02-16T04:24:13;98811.91;;;-0.89;100.00
11448;BME280;43755;49.736;8.734;2023-02-16T04:26:14;98815.34;;;-0.90;100.00
11448;BME280;43755;49.736;8.734;2023-02-16T04:28:15;98818.38;;;-0.61;100.00
11448;BME280;43755;49.736;8.734;2023-02-16T04:30:19;98811.22;;;-0.76;100.00
11448;BME280;43755;49.736;8.734;2023-02-16T04:32:21;98816.13;;;-0.96;100.00
11448;BME280;43755;49.736;8.734;2023-02-16T04:34:24;98806.16;;;-1.24;100.00
11448;BME280;43755;49.736;8.734;2023-02-16T04:36:25;98822.28;;;-1.40;100.00
11448;BME280;43755;49.736;8.734;2023-02-16T04:38:26;98816.78;;;-1.58;100.00
11448;BME280;43755;49.736;8.734;2023-02-16T04:40:28;98808.50;;;-1.38;100.00
11448;BME280;43755;49.736;8.734;2023-02-16T04:42:29;98807.91;;;-0.66;100.00
11448;BME280;43755;49.736;8.734;2023-02-16T04:44:31;98802.63;;;-0.70;100.00
11448;BME280;43755;49.736;8.734;2023-02-16T04:46:32;98800.84;;;-1.29;100.00
11448;BME280;43755;49.736;8.734;2023-02-16T04:48:33;98808.06;;;-1.12;100.00
11448;BME280;43755;49.736;8.734;2023-02-16T04:50:36;98795.44;;;-0.90;100.00
11448;BME280;43755;49.736;8.734;2023-02-16T04:52:38;98807.31;;;-0.48;100.00
11448;BME280;43755;49.736;8.734;2023-02-16T04:54:40;98797.22;;;-0.22;100.00
11448;BME280;43755;49.736;8.734;2023-02-16T04:56:43;98795.91;;;0.12;100.00
11448;BME280;43755;49.736;8.734;2023-02-16T04:58:44;98786.47;;;0.24;100.00
11448;BME280;43755;49.736;8.734;2023-02-16T05:00:45;98790.06;;;0.34;100.00
11448;BME280;43755;49.736;8.734;2023-02-16T05:02:47;98787.44;;;0.32;100.00
11448;BME280;43755;49.736;8.734;2023-02-16T05:04:48;98795.88;;;0.10;100.00
11448;BME280;43755;49.736;8.734;2023-02-16T05:06:51;98793.03;;;-0.76;100.00
11448;BME280;43755;49.736;8.734;2023-02-16T05:08:52;98798.53;;;-1.13;100.00
11448;BME280;43755;49.736;8.734;2023-02-16T05:10:54;98810.25;;;-1.35;100.00
11448;BME280;43755;49.736;8.734;2023-02-16T05:13:09;98806.38;;;-1.60;100.00
11448;BME280;43755;49.736;8.734;2023-02-16T05:15:29;98812.34;;;-1.64;100.00
11448;BME280;43755;49.736;8.734;2023-02-16T05:17:30;98824.44;;;-1.65;100.00
11448;BME280;43755;49.736;8.734;2023-02-16T05:19:32;98820.94;;;-1.68;100.00
11448;BME280;43755;49.736;8.734;2023-02-16T05:21:33;98817.47;;;-1.69;100.00
11448;BME280;43755;49.736;8.734;2023-02-16T05:23:36;98813.13;;;-1.71;100.00
11448;BME280;43755;49.736;8.734;2023-02-16T05:25:38;98810.50;;;-1.71;100.00
11448;BME280;43755;49.736;8.734;2023-02-16T05:27:39;98802.03;;;-1.10;100.00
11448;BME280;43755;49.736;8.734;2023-02-16T05:29:41;98804.19;;;-0.20;100.00
11448;BME280;43755;49.736;8.734;2023-02-16T05:31:42;98802.16;;;0.27;100.00
11448;BME280;43755;49.736;8.734;2023-02-16T05:33:44;98803.16;;;0.43;100.00
11448;BME280;43755;49.736;8.734;2023-02-16T05:35:45;98809.28;;;0.48;100.00
11448;BME280;43755;49.736;8.734;2023-02-16T05:37:46;98811.88;;;0.48;100.00
11448;BME280;43755;49.736;8.734;2023-02-16T05:39:49;98808.44;;;0.49;100.00
11448;BME280;43755;49.736;8.734;2023-02-16T05:41:51;98795.41;;;0.46;100.00
11448;BME280;43755;49.736;8.734;2023-02-16T05:43:55;98798.94;;;0.53;100.00
11448;BME280;43755;49.736;8.734;2023-02-16T05:45:57;98805.84;;;0.51;100.00
11448;BME280;43755;49.736;8.734;2023-02-16T05:47:58;98804.19;;;0.57;100.00
11448;BME280;43755;49.736;8.734;2023-02-16T05:49:59;98808.50;;;0.57;100.00
11448;BME280;43755;49.736;8.734;2023-02-16T05:52:01;98815.53;;;0.67;100.00
11448;BME280;43755;49.736;8.734;2023-02-16T05:54:02;98810.44;;;0.77;100.00
11448;BME280;43755;49.736;8.734;2023-02-16T05:56:06;98816.44;;;0.69;100.00
11448;BME280;43755;49.736;8.734;2023-02-16T05:58:07;98819.97;;;0.75;100.00
11448;BME280;43755;49.736;8.734;2023-02-16T06:00:10;98820.94;;;0.85;100.00
11448;BME280;43755;49.736;8.734;2023-02-16T06:02:13;98815.03;;;1.09;100.00
11448;BME280;43755;49.736;8.734;2023-02-16T06:04:15;98809.94;;;1.22;100.00
11448;BME280;43755;49.736;8.734;2023-02-16T06:06:16;98818.75;;;1.41;100.00
11448;BME280;43755;49.736;8.734;2023-02-16T06:08:18;98814.44;;;1.46;100.00
11448;BME280;43755;49.736;8.734;2023-02-16T06:10:19;98818.78;;;1.49;100.00
11448;BME280;43755;49.736;8.734;2023-02-16T06:12:22;98821.34;;;1.43;100.00
11448;BME280;43755;49.736;8.734;2023-02-16T06:14:23;98822.25;;;1.45;100.00
11448;BME280;43755;49.736;8.734;2023-02-16T06:16:25;98817.88;;;1.41;100.00
11448;BME280;43755;49.736;8.734;2023-02-16T06:18:27;98814.41;;;1.40;100.00
11448;BME280;43755;49.736;8.734;2023-02-16T06:20:29;98827.47;;;1.48;100.00
11448;BME280;43755;49.736;8.734;2023-02-16T06:22:30;98821.38;;;1.46;100.00
11448;BME280;43755;49.736;8.734;2023-02-16T06:24:31;98824.84;;;1.48;100.00
11448;BME280;43755;49.736;8.734;2023-02-16T06:26:33;98826.59;;;1.41;100.00
11448;BME280;43755;49.736;8.734;2023-02-16T06:28:36;98818.72;;;1.35;100.00
11448;BME280;43755;49.736;8.734;2023-02-16T06:30:37;98817.75;;;1.22;100.00
11448;BME280;43755;49.736;8.734;2023-02-16T06:32:39;98824.66;;;1.16;100.00
11448;BME280;43755;49.736;8.734;2023-02-16T06:34:40;98822.88;;;1.10;100.00
11448;BME280;43755;49.736;8.734;2023-02-16T06:36:41;98823.63;;;1.00;100.00
11448;BME280;43755;49.736;8.734;2023-02-16T06:38:43;98828.91;;;1.03;100.00
11448;BME280;43755;49.736;8.734;2023-02-16T06:40:45;98833.16;;;0.95;100.00
11448;BME280;43755;49.736;8.734;2023-02-16T06:42:46;98837.53;;;0.98;100.00
11448;BME280;43755;49.736;8.734;2023-02-16T06:44:49;98843.63;;;1.01;100.00
11448;BME280;43755;49.736;8.734;2023-02-16T06:46:50;98833.31;;;1.10;100.00
11448;BME280;43755;49.736;8.734;2023-02-16T06:48:52;98847.16;;;1.06;100.00
11448;BME280;43755;49.736;8.734;2023-02-16T06:50:53;98856.69;;;1.03;100.00
11448;BME280;43755;49.736;8.734;2023-02-16T06:52:55;98864.44;;;0.97;100.00
11448;BME280;43755;49.736;8.734;2023-02-16T06:54:56;98865.25;;;0.88;100.00
11448;BME280;43755;49.736;8.734;2023-02-16T06:56:57;98873.06;;;0.88;100.00
11448;BME280;43755;49.736;8.734;2023-02-16T06:58:59;98864.31;;;0.81;100.00
11448;BME280;43755;49.736;8.734;2023-02-16T07:01:03;98875.50;;;0.73;100.00
11448;BME280;43755;49.736;8.734;2023-02-16T07:03:04;98872.81;;;0.64;100.00
11448;BME280;43755;49.736;8.734;2023-02-16T07:05:06;98878.78;;;0.52;100.00
11448;BME280;43755;49.736;8.734;2023-02-16T07:07:07;98880.44;;;0.46;100.00
11448;BME280;43755;49.736;8.734;2023-02-16T07:09:08;98883.81;;;0.38;100.00
11448;BME280;43755;49.736;8.734;2023-02-16T07:11:10;98882.91;;;0.33;100.00
11448;BME280;43755;49.736;8.734;2023-02-16T07:13:11;98887.25;;;0.34;100.00
11448;BME280;43755;49.736;8.734;2023-02-16T07:15:13;98890.72;;;0.35;100.00
11448;BME280;43755;49.736;8.734;2023-02-16T07:17:16;98886.34;;;0.32;100.00
11448;BME280;43755;49.736;8.734;2023-02-16T07:19:17;98893.25;;;0.29;100.00
11448;BME280;43755;49.736;8.734;2023-02-16T07:21:19;98888.00;;;0.26;100.00
11448;BME280;43755;49.736;8.734;2023-02-16T07:23:20;98890.63;;;0.27;100.00
11448;BME280;43755;49.736;8.734;2023-02-16T07:25:22;98885.44;;;0.27;100.00
11448;BME280;43755;49.736;8.734;2023-02-16T07:27:24;98887.16;;;0.27;100.00
11448;BME280;43755;49.736;8.734;2023-02-16T07:29:26;98890.63;;;0.27;100.00
11448;BME280;43755;49.736;8.734;2023-02-16T07:31:28;98891.53;;;0.29;100.00
11448;BME280;43755;49.736;8.734;2023-02-16T07:33:30;98883.69;;;0.28;100.00
11448;BME280;43755;49.736;8.734;2023-02-16T07:35:32;98883.78;;;0.34;100.00
11448;BME280;43755;49.736;8.734;2023-02-16T07:37:33;98876.94;;;0.44;100.00
11448;BME280;43755;49.736;8.734;2023-02-16T07:39:35;98867.50;;;0.55;100.00
11448;BME280;43755;49.736;8.734;2023-02-16T07:41:36;98866.75;;;0.63;100.00
11448;BME280;43755;49.736;8.734;2023-02-16T07:43:38;98863.28;;;0.64;100.00
11448;BME280;43755;49.736;8.734;2023-02-16T07:45:41;98863.28;;;0.66;100.00
11448;BME280;43755;49.736;8.734;2023-02-16T07:47:43;98866.69;;;0.57;100.00
11448;BME280;43755;49.736;8.734;2023-02-16T07:49:45;98870.03;;;0.49;100.00
11448;BME280;43755;49.736;8.734;2023-02-16T07:51:47;98861.28;;;0.40;100.00
11448;BME280;43755;49.736;8.734;2023-02-16T07:53:48;98863.91;;;0.44;100.00
11448;BME280;43755;49.736;8.734;2023-02-16T07:55:50;98854.44;;;0.47;100.00
11448;BME280;43755;49.736;8.734;2023-02-16T07:57:51;98857.19;;;0.62;100.00
11448;BME280;43755;49.736;8.734;2023-02-16T07:59:56;98852.03;;;0.71;100.00
11448;BME280;43755;49.736;8.734;2023-02-16T08:01:58;98857.34;;;0.80;100.00
11448;BME280;43755;49.736;8.734;2023-02-16T08:03:59;98858.28;;;0.87;100.00
11448;BME280;43755;49.736;8.734;2023-02-16T08:06:02;98866.22;;;0.99;100.00
11448;BME280;43755;49.736;8.734;2023-02-16T08:08:04;98858.56;;;1.17;100.00
11448;BME280;43755;49.736;8.734;2023-02-16T08:10:07;98863.03;;;1.37;100.00
11448;BME280;43755;49.736;8.734;2023-02-16T08:12:09;98864.00;;;1.54;100.00
11448;BME280;43755;49.736;8.734;2023-02-16T08:14:11;98862.38;;;1.68;100.00
11448;BME280;43755;49.736;8.734;2023-02-16T08:16:14;98863.31;;;1.79;100.00
11448;BME280;43755;49.736;8.734;2023-02-16T08:18:16;98872.13;;;1.99;100.00
11448;BME280;43755;49.736;8.734;2023-02-16T08:20:18;98873.94;;;2.20;100.00
11448;BME280;43755;49.736;8.734;2023-02-16T08:22:20;98870.53;;;2.36;100.00
11448;BME280;43755;49.736;8.734;2023-02-16T08:24:23;98866.22;;;2.44;100.00
11448;BME280;43755;49.736;8.734;2023-02-16T08:26:27;98878.44;;;2.61;100.00
11448;BME280;43755;49.736;8.734;2023-02-16T08:28:29;98880.22;;;2.71;100.00
11448;BME280;43755;49.736;8.734;2023-02-16T08:30:30;98868.06;;;2.88;100.00
11448;BME280;43755;49.736;8.734;2023-02-16T08:32:31;98868.09;;;3.00;100.00
11448;BME280;43755;49.736;8.734;2023-02-16T08:34:34;98873.31;;;3.06;100.00
11448;BME280;43755;49.736;8.734;2023-02-16T08:36:36;98874.16;;;3.07;100.00
11448;BME280;43755;49.736;8.734;2023-02-16T08:38:40;98871.56;;;3.04;100.00
11448;BME280;43755;49.736;8.734;2023-02-16T08:40:46;98870.72;;;3.00;100.00
11448;BME280;43755;49.736;8.734;2023-02-16T08:42:48;98875.91;;;2.94;100.00
11448;BME280;43755;49.736;8.734;2023-02-16T08:44:49;98875.88;;;2.79;100.00
11448;BME280;43755;49.736;8.734;2023-02-16T08:46:53;98880.22;;;2.74;100.00
11448;BME280;43755;49.736;8.734;2023-02-16T08:48:55;98877.59;;;2.65;100.00
11448;BME280;43755;49.736;8.734;2023-02-16T08:50:59;98879.31;;;2.61;100.00
11448;BME280;43755;49.736;8.734;2023-02-16T08:53:00;98878.44;;;2.53;100.00
11448;BME280;43755;49.736;8.734;2023-02-16T08:55:04;98872.34;;;2.51;100.00
11448;BME280;43755;49.736;8.734;2023-02-16T08:57:06;98883.66;;;2.50;100.00
11448;BME280;43755;49.736;8.734;2023-02-16T08:59:07;98879.31;;;2.52;100.00
11448;BME280;43755;49.736;8.734;2023-02-16T09:01:09;98880.16;;;2.54;100.00
11448;BME280;43755;49.736;8.734;2023-02-16T09:03:11;98882.78;;;2.54;100.00
11448;BME280;43755;49.736;8.734;2023-02-16T09:05:13;98884.53;;;2.61;100.00
11448;BME280;43755;49.736;8.734;2023-02-16T09:07:15;98886.31;;;2.68;100.00
11448;BME280;43755;49.736;8.734;2023-02-16T09:09:16;98882.84;;;2.78;100.00
11448;BME280;43755;49.736;8.734;2023-02-16T09:11:20;98888.09;;;2.86;100.00
11448;BME280;43755;49.736;8.734;2023-02-16T09:13:22;98882.00;;;2.87;100.00
11448;BME280;43755;49.736;8.734;2023-02-16T09:15:23;98879.38;;;2.95;100.00
11448;BME280;43755;49.736;8.734;2023-02-16T09:17:24;98874.16;;;3.07;100.00
11448;BME280;43755;49.736;8.734;2023-02-16T09:19:27;98879.41;;;3.16;100.00
11448;BME280;43755;49.736;8.734;2023-02-16T09:21:30;98872.44;;;3.22;100.00
11448;BME280;43755;49.736;8.734;2023-02-16T09:23:32;98880.31;;;3.24;100.00
11448;BME280;43755;49.736;8.734;2023-02-16T09:25:35;98885.53;;;3.28;100.00
11448;BME280;43755;49.736;8.734;2023-02-16T09:27:38;98880.31;;;3.28;100.00
11448;BME280;43755;49.736;8.734;2023-02-16T09:29:39;98882.91;;;3.32;100.00
11448;BME280;43755;49.736;8.734;2023-02-16T09:31:41;98888.13;;;3.33;100.00
11448;BME280;43755;49.736;8.734;2023-02-16T09:33:44;98889.03;;;3.35;100.00
11448;BME280;43755;49.736;8.734;2023-02-16T09:35:46;98884.66;;;3.40;100.00
11448;BME280;43755;49.736;8.734;2023-02-16T09:37:47;98886.41;;;3.41;100.00
11448;BME280;43755;49.736;8.734;2023-02-16T09:39:49;98900.31;;;3.48;100.00
11448;BME280;43755;49.736;8.734;2023-02-16T09:42:05;98894.22;;;3.49;100.00
11448;BME280;43755;49.736;8.734;2023-02-16T09:44:19;98894.22;;;3.61;100.00
11448;BME280;43755;49.736;8.734;2023-02-16T09:46:27;98905.56;;;3.75;100.00
11448;BME280;43755;49.736;8.734;2023-02-16T09:48:33;98900.28;;;3.96;100.00
11448;BME280;43755;49.736;8.734;2023-02-16T09:50:37;98900.22;;;4.13;100.00
11448;BME280;43755;49.736;8.734;2023-02-16T09:52:42;98897.56;;;4.25;100.00
11448;BME280;43755;49.736;8.734;2023-02-16T09:54:48;98901.03;;;4.32;100.00
11448;BME280;43755;49.736;8.734;2023-02-16T09:56:53;98900.16;;;4.37;100.00
11448;BME280;43755;49.736;8.734;2023-02-16T09:59:00;98888.75;;;4.49;100.00
11448;BME280;43755;49.736;8.734;2023-02-16T10:01:12;98887.81;;;4.65;100.00
11448;BME280;43755;49.736;8.734;2023-02-16T10:03:25;98883.44;;;4.64;100.00
11448;BME280;43755;49.736;8.734;2023-02-16T10:05:42;98883.41;;;4.70;100.00
11448;BME280;43755;49.736;8.734;2023-02-16T10:08:00;98885.13;;;4.74;100.00
11448;BME280;43755;49.736;8.734;2023-02-16T10:10:04;98885.06;;;4.85;100.00
11448;BME280;43755;49.736;8.734;2023-02-16T10:12:09;98890.25;;;4.92;100.00
11448;BME280;43755;49.736;8.734;2023-02-16T10:14:17;98891.00;;;5.13;100.00
11448;BME280;43755;49.736;8.734;2023-02-16T10:16:27;98880.44;;;5.22;100.00
11448;BME280;43755;49.736;8.734;2023-02-16T10:18:32;98895.22;;;5.35;100.00
11448;BME280;43755;49.736;8.734;2023-02-16T10:20:37;98888.06;;;5.52;100.00
11448;BME280;43755;49.736;8.734;2023-02-16T10:22:44;98891.47;;;5.63;100.00
11448;BME280;43755;49.736;8.734;2023-02-16T10:24:56;98886.88;;;5.90;100.00
11448;BME280;43755;49.736;8.734;2023-02-16T10:27:03;98894.47;;;6.17;100.00
11448;BME280;43755;49.736;8.734;2023-02-16T10:29:09;98894.34;;;6.29;100.00
11448;BME280;43755;49.736;8.734;2023-02-16T10:31:26;98886.25;;;6.44;100.00
11448;BME280;43755;49.736;8.734;2023-02-16T10:33:36;98884.28;;;6.60;100.00
11448;BME280;43755;49.736;8.734;2023-02-16T10:35:45;98884.06;;;6.78;100.00
11448;BME280;43755;49.736;8.734;2023-02-16T10:37:56;98875.09;;;6.93;100.00
11448;BME280;43755;49.736;8.734;2023-02-16T10:40:19;98871.13;;;7.24;100.00
11448;BME280;43755;49.736;8.734;2023-02-16T10:42:28;98869.09;;;7.40;100.00
11448;BME280;43755;49.736;8.734;2023-02-16T10:44:34;98876.94;;;7.43;100.00
11448;BME280;43755;49.736;8.734;2023-02-16T10:46:42;98878.50;;;7.55;100.00
11448;BME280;43755;49.736;8.734;2023-02-16T10:48:45;98878.47;;;7.56;100.00
11448;BME280;43755;49.736;8.734;2023-02-16T10:50:54;98880.44;;;7.44;100.00
11448;BME280;43755;49.736;8.734;2023-02-16T10:53:00;98882.47;;;7.28;100.00
11448;BME280;43755;49.736;8.734;2023-02-16T10:55:05;98886.06;;;7.22;100.00
11448;BME280;43755;49.736;8.734;2023-02-16T10:57:12;98879.84;;;7.26;100.00